AFR603 SBBE-SOCA
Flight info
| Callsign | AFR603 |
|---|---|
| Flight time | 1h 8m |
| Altitude | 38000 |
| Route | ERUGA UA555 ALDIX ALDIX1S |
| Aircraft | A320/M-SDE2E3FGHIJ1RWXY/HB1 |
Departure
| Time | 2026-04-26 13:16 |
|---|---|
| Airport | Val de Cans/Júlio Cezar Ribeiro International Airport (SBBE) |
Arrival
| Time | 2026-04-26 14:24 |
|---|---|
| Airport | Cayenne – Félix Eboué Airport (SOCA) |
| Time | Latitude | Longitude | Altitude | Speed | Heading |
|---|---|---|---|---|---|
| 2026-04-26 12:50 | -1.38853 | -48.47887 | 56 ft | 0 kts | 227° |
| 2026-04-26 13:06 | -1.38847 | -48.47880 | 65 ft | 4 kts | 227° |
| 2026-04-26 13:06 | -1.38829 | -48.47860 | 56 ft | 4 kts | 231° |
| 2026-04-26 13:06 | -1.38812 | -48.47839 | 58 ft | 4 kts | 238° |
| 2026-04-26 13:07 | -1.38802 | -48.47815 | 57 ft | 4 kts | 271° |
| 2026-04-26 13:07 | -1.38802 | -48.47804 | 61 ft | 2 kts | 4° |
| 2026-04-26 13:07 | -1.38808 | -48.47804 | 62 ft | 0 kts | 5° |
| 2026-04-26 13:11 | -1.38807 | -48.47804 | 65 ft | 0 kts | 5° |
| 2026-04-26 13:11 | -1.38792 | -48.47803 | 60 ft | 6 kts | 5° |
| 2026-04-26 13:11 | -1.38729 | -48.47798 | 65 ft | 11 kts | 5° |
| 2026-04-26 13:11 | -1.38665 | -48.47814 | 63 ft | 9 kts | 285° |
| 2026-04-26 13:12 | -1.38666 | -48.47878 | 65 ft | 9 kts | 269° |
| 2026-04-26 13:12 | -1.38668 | -48.47939 | 65 ft | 9 kts | 268° |
| 2026-04-26 13:12 | -1.38669 | -48.47999 | 65 ft | 8 kts | 270° |
| 2026-04-26 13:12 | -1.38670 | -48.48056 | 58 ft | 8 kts | 266° |
| 2026-04-26 13:13 | -1.38671 | -48.48111 | 65 ft | 8 kts | 270° |
| 2026-04-26 13:13 | -1.38671 | -48.48167 | 65 ft | 8 kts | 267° |
| 2026-04-26 13:13 | -1.38674 | -48.48223 | 60 ft | 8 kts | 260° |
| 2026-04-26 13:13 | -1.38721 | -48.48269 | 64 ft | 10 kts | 222° |
| 2026-04-26 13:14 | -1.38770 | -48.48317 | 61 ft | 10 kts | 227° |
| 2026-04-26 13:14 | -1.38812 | -48.48367 | 62 ft | 9 kts | 239° |
| 2026-04-26 13:14 | -1.38815 | -48.48426 | 63 ft | 9 kts | 270° |
| 2026-04-26 13:14 | -1.38802 | -48.48485 | 59 ft | 8 kts | 313° |
| 2026-04-26 13:15 | -1.38765 | -48.48464 | 63 ft | 7 kts | 44° |
| 2026-04-26 13:15 | -1.38639 | -48.48338 | 58 ft | 62 kts | 45° |
| 2026-04-26 13:15 | -1.38153 | -48.47846 | 61 ft | 134 kts | 45° |
| 2026-04-26 13:15 | -1.37462 | -48.47137 | 642 ft | 142 kts | 46° |
| 2026-04-26 13:16 | -1.36760 | -48.46433 | 1422 ft | 143 kts | 46° |
| 2026-04-26 13:16 | -1.36056 | -48.45727 | 2138 ft | 144 kts | 46° |
| 2026-04-26 13:16 | -1.35243 | -48.45145 | 2828 ft | 148 kts | 30° |
| 2026-04-26 13:16 | -1.34228 | -48.44673 | 3303 ft | 173 kts | 20° |
| 2026-04-26 13:17 | -1.31685 | -48.45450 | 4246 ft | 229 kts | 323° |
| 2026-04-26 13:17 | -1.30408 | -48.46543 | 4834 ft | 254 kts | 320° |
| 2026-04-26 13:18 | -1.27440 | -48.48920 | 6357 ft | 284 kts | 324° |
| 2026-04-26 13:18 | -1.25868 | -48.50095 | 7282 ft | 288 kts | 324° |
| 2026-04-26 13:18 | -1.22612 | -48.52519 | 9249 ft | 295 kts | 324° |
| 2026-04-26 13:19 | -1.20956 | -48.53759 | 10172 ft | 300 kts | 324° |
| 2026-04-26 13:19 | -1.19218 | -48.55064 | 10545 ft | 324 kts | 324° |
| 2026-04-26 13:19 | -1.17373 | -48.56454 | 11099 ft | 338 kts | 324° |
| 2026-04-26 13:19 | -1.15477 | -48.57885 | 11874 ft | 343 kts | 324° |
| 2026-04-26 13:20 | -1.13556 | -48.59339 | 12677 ft | 348 kts | 324° |
| 2026-04-26 13:20 | -1.11608 | -48.60817 | 13463 ft | 353 kts | 324° |
| 2026-04-26 13:20 | -1.09662 | -48.62292 | 14192 ft | 358 kts | 324° |
| 2026-04-26 13:20 | -1.07664 | -48.63803 | 14903 ft | 361 kts | 324° |
| 2026-04-26 13:21 | -1.05649 | -48.65326 | 15612 ft | 365 kts | 324° |
| 2026-04-26 13:21 | -1.04300 | -48.66345 | 16081 ft | 367 kts | 324° |
| 2026-04-26 13:21 | -1.01549 | -48.68425 | 17014 ft | 373 kts | 324° |
| 2026-04-26 13:21 | -0.99474 | -48.69996 | 17699 ft | 376 kts | 324° |
| 2026-04-26 13:22 | -0.97369 | -48.71588 | 18370 ft | 380 kts | 324° |
| 2026-04-26 13:22 | -0.95271 | -48.73170 | 18943 ft | 384 kts | 324° |
| 2026-04-26 13:22 | -0.93129 | -48.74787 | 19521 ft | 388 kts | 325° |
| 2026-04-26 13:22 | -0.90963 | -48.76426 | 20100 ft | 392 kts | 325° |
| 2026-04-26 13:23 | -0.88771 | -48.78087 | 20674 ft | 397 kts | 325° |
| 2026-04-26 13:23 | -0.86560 | -48.79760 | 21230 ft | 401 kts | 325° |
| 2026-04-26 13:23 | -0.84324 | -48.81452 | 21787 ft | 406 kts | 325° |
| 2026-04-26 13:23 | -0.82058 | -48.83161 | 22349 ft | 410 kts | 327° |
| 2026-04-26 13:24 | -0.79659 | -48.84715 | 22902 ft | 413 kts | 330° |
| 2026-04-26 13:24 | -0.77209 | -48.86250 | 23461 ft | 417 kts | 330° |
| 2026-04-26 13:24 | -0.74730 | -48.87798 | 23927 ft | 421 kts | 330° |
| 2026-04-26 13:24 | -0.72234 | -48.89359 | 24382 ft | 425 kts | 330° |
| 2026-04-26 13:25 | -0.69751 | -48.90915 | 24834 ft | 428 kts | 330° |
| 2026-04-26 13:25 | -0.67218 | -48.92502 | 25284 ft | 431 kts | 330° |
| 2026-04-26 13:25 | -0.64667 | -48.94102 | 25728 ft | 434 kts | 330° |
| 2026-04-26 13:25 | -0.62098 | -48.95712 | 26170 ft | 437 kts | 330° |
| 2026-04-26 13:26 | -0.59509 | -48.97333 | 26601 ft | 440 kts | 330° |
| 2026-04-26 13:26 | -0.56900 | -48.98967 | 27028 ft | 443 kts | 330° |
| 2026-04-26 13:26 | -0.54274 | -49.00614 | 27433 ft | 447 kts | 329° |
| 2026-04-26 13:26 | -0.51635 | -49.02273 | 27840 ft | 450 kts | 329° |
| 2026-04-26 13:27 | -0.49011 | -49.03921 | 28237 ft | 452 kts | 329° |
| 2026-04-26 13:27 | -0.46331 | -49.05604 | 28631 ft | 455 kts | 329° |
| 2026-04-26 13:27 | -0.43631 | -49.07295 | 29021 ft | 458 kts | 329° |
| 2026-04-26 13:27 | -0.40921 | -49.08992 | 29403 ft | 461 kts | 329° |
| 2026-04-26 13:28 | -0.38188 | -49.10706 | 29763 ft | 464 kts | 329° |
| 2026-04-26 13:28 | -0.35442 | -49.12429 | 30112 ft | 467 kts | 329° |
| 2026-04-26 13:28 | -0.32679 | -49.14163 | 30418 ft | 470 kts | 329° |
| 2026-04-26 13:28 | -0.29901 | -49.15906 | 30735 ft | 472 kts | 329° |
| 2026-04-26 13:29 | -0.27117 | -49.17655 | 31049 ft | 474 kts | 329° |
| 2026-04-26 13:29 | -0.25261 | -49.18818 | 31256 ft | 475 kts | 329° |
| 2026-04-26 13:29 | -0.21501 | -49.21171 | 31663 ft | 477 kts | 329° |
| 2026-04-26 13:29 | -0.18680 | -49.22939 | 31954 ft | 479 kts | 329° |
| 2026-04-26 13:30 | -0.15890 | -49.24688 | 32357 ft | 478 kts | 329° |
| 2026-04-26 13:30 | -0.13078 | -49.26451 | 32781 ft | 476 kts | 329° |
| 2026-04-26 13:30 | -0.10271 | -49.28214 | 33213 ft | 475 kts | 329° |
| 2026-04-26 13:30 | -0.07479 | -49.29966 | 33647 ft | 474 kts | 329° |
| 2026-04-26 13:31 | -0.04686 | -49.31715 | 34069 ft | 472 kts | 329° |
| 2026-04-26 13:31 | -0.01902 | -49.33457 | 34448 ft | 471 kts | 330° |
| 2026-04-26 13:31 | 0.00877 | -49.35194 | 34833 ft | 470 kts | 330° |
| 2026-04-26 13:31 | 0.03612 | -49.36906 | 35199 ft | 469 kts | 330° |
| 2026-04-26 13:32 | 0.06373 | -49.38635 | 35556 ft | 468 kts | 330° |
| 2026-04-26 13:32 | 0.09131 | -49.40365 | 35907 ft | 467 kts | 330° |
| 2026-04-26 13:32 | 0.11885 | -49.42092 | 36249 ft | 466 kts | 330° |
| 2026-04-26 13:32 | 0.14624 | -49.43811 | 36588 ft | 465 kts | 330° |
| 2026-04-26 13:33 | 0.17360 | -49.45528 | 36914 ft | 464 kts | 330° |
| 2026-04-26 13:33 | 0.20092 | -49.47241 | 37235 ft | 463 kts | 330° |
| 2026-04-26 13:33 | 0.22784 | -49.48927 | 37548 ft | 462 kts | 330° |
| 2026-04-26 13:33 | 0.25507 | -49.50634 | 37856 ft | 461 kts | 330° |
| 2026-04-26 13:34 | 0.28226 | -49.52340 | 37976 ft | 461 kts | 330° |
| 2026-04-26 13:34 | 0.33646 | -49.55737 | 37988 ft | 458 kts | 330° |
| 2026-04-26 13:35 | 0.39057 | -49.59117 | 37994 ft | 458 kts | 330° |
| 2026-04-26 13:35 | 0.44453 | -49.62506 | 37985 ft | 458 kts | 329° |
| 2026-04-26 13:36 | 0.49813 | -49.65875 | 37997 ft | 458 kts | 330° |
| 2026-04-26 13:36 | 0.55217 | -49.69267 | 37994 ft | 458 kts | 330° |
| 2026-04-26 13:37 | 0.60616 | -49.72652 | 37993 ft | 458 kts | 330° |
| 2026-04-26 13:37 | 0.66017 | -49.76034 | 37986 ft | 458 kts | 329° |
| 2026-04-26 13:38 | 0.71388 | -49.79394 | 37999 ft | 458 kts | 329° |
| 2026-04-26 13:38 | 0.76794 | -49.82787 | 37987 ft | 458 kts | 329° |
| 2026-04-26 13:39 | 0.82198 | -49.86181 | 37996 ft | 458 kts | 329° |
| 2026-04-26 13:39 | 0.87569 | -49.89546 | 38002 ft | 458 kts | 329° |
| 2026-04-26 13:40 | 0.92979 | -49.92934 | 37989 ft | 459 kts | 330° |
| 2026-04-26 13:40 | 0.98392 | -49.96328 | 37991 ft | 459 kts | 330° |
| 2026-04-26 13:41 | 1.03808 | -49.99719 | 37991 ft | 459 kts | 329° |
| 2026-04-26 13:41 | 1.09222 | -50.03118 | 37999 ft | 459 kts | 329° |
| 2026-04-26 13:42 | 1.14629 | -50.06515 | 38007 ft | 459 kts | 329° |
| 2026-04-26 13:42 | 1.20006 | -50.09881 | 38000 ft | 459 kts | 330° |
| 2026-04-26 13:43 | 1.25425 | -50.13284 | 38003 ft | 459 kts | 330° |
| 2026-04-26 13:43 | 1.30841 | -50.16683 | 38010 ft | 460 kts | 330° |
| 2026-04-26 13:44 | 1.36263 | -50.20075 | 37999 ft | 460 kts | 330° |
| 2026-04-26 13:44 | 1.41658 | -50.23457 | 38008 ft | 459 kts | 330° |
| 2026-04-26 13:45 | 1.47071 | -50.26853 | 38011 ft | 459 kts | 330° |
| 2026-04-26 13:45 | 1.52480 | -50.30251 | 38007 ft | 459 kts | 330° |
| 2026-04-26 13:46 | 1.56984 | -50.33078 | 38004 ft | 460 kts | 330° |
| 2026-04-26 13:46 | 1.62406 | -50.36490 | 37999 ft | 460 kts | 330° |
| 2026-04-26 13:47 | 1.68722 | -50.40448 | 38006 ft | 460 kts | 330° |
| 2026-04-26 13:47 | 1.73272 | -50.43297 | 38005 ft | 460 kts | 330° |
| 2026-04-26 13:48 | 1.78667 | -50.46681 | 38003 ft | 460 kts | 330° |
| 2026-04-26 13:48 | 1.84108 | -50.50091 | 38009 ft | 461 kts | 330° |
| 2026-04-26 13:49 | 1.89513 | -50.53492 | 38008 ft | 461 kts | 330° |
| 2026-04-26 13:49 | 1.94966 | -50.56921 | 38006 ft | 461 kts | 330° |
| 2026-04-26 13:50 | 2.00379 | -50.60314 | 38000 ft | 461 kts | 330° |
| 2026-04-26 13:50 | 2.05821 | -50.63722 | 38004 ft | 461 kts | 330° |
| 2026-04-26 13:51 | 2.11251 | -50.67137 | 38003 ft | 462 kts | 330° |
| 2026-04-26 13:51 | 2.16701 | -50.70557 | 38004 ft | 462 kts | 330° |
| 2026-04-26 13:52 | 2.22133 | -50.74017 | 38003 ft | 462 kts | 329° |
| 2026-04-26 13:52 | 2.27518 | -50.77517 | 38017 ft | 463 kts | 329° |
| 2026-04-26 13:53 | 2.32936 | -50.81035 | 38019 ft | 463 kts | 329° |
| 2026-04-26 13:53 | 2.38347 | -50.84527 | 38023 ft | 463 kts | 329° |
| 2026-04-26 13:54 | 2.43749 | -50.88007 | 38018 ft | 462 kts | 329° |
| 2026-04-26 13:54 | 2.49152 | -50.91501 | 38018 ft | 462 kts | 329° |
| 2026-04-26 13:55 | 2.56318 | -50.96135 | 38023 ft | 462 kts | 329° |
| 2026-04-26 13:56 | 2.65324 | -51.01947 | 38028 ft | 462 kts | 329° |
| 2026-04-26 13:56 | 2.70723 | -51.05442 | 38029 ft | 462 kts | 329° |
| 2026-04-26 13:57 | 2.76113 | -51.08932 | 38022 ft | 461 kts | 329° |
| 2026-04-26 13:57 | 2.81504 | -51.12404 | 38020 ft | 461 kts | 330° |
| 2026-04-26 13:58 | 2.86885 | -51.15870 | 38023 ft | 461 kts | 329° |
| 2026-04-26 13:58 | 2.92259 | -51.19345 | 38023 ft | 461 kts | 329° |
| 2026-04-26 13:59 | 2.97645 | -51.22826 | 38019 ft | 461 kts | 329° |
| 2026-04-26 13:59 | 3.03045 | -51.26312 | 38022 ft | 460 kts | 329° |
| 2026-04-26 14:00 | 3.13764 | -51.33249 | 38021 ft | 460 kts | 329° |
| 2026-04-26 14:01 | 3.19137 | -51.36724 | 38016 ft | 460 kts | 329° |
| 2026-04-26 14:01 | 3.24511 | -51.40199 | 38007 ft | 460 kts | 329° |
| 2026-04-26 14:02 | 3.29887 | -51.43681 | 38011 ft | 460 kts | 329° |
| 2026-04-26 14:02 | 3.35265 | -51.47158 | 38009 ft | 460 kts | 329° |
| 2026-04-26 14:03 | 3.40608 | -51.50605 | 37648 ft | 459 kts | 329° |
| 2026-04-26 14:03 | 3.43301 | -51.52344 | 36836 ft | 461 kts | 329° |
| 2026-04-26 14:03 | 3.46007 | -51.54093 | 35948 ft | 465 kts | 329° |
| 2026-04-26 14:03 | 3.48739 | -51.55862 | 35041 ft | 469 kts | 329° |
| 2026-04-26 14:04 | 3.51498 | -51.57653 | 34155 ft | 474 kts | 329° |
| 2026-04-26 14:04 | 3.54245 | -51.59437 | 33554 ft | 469 kts | 329° |
| 2026-04-26 14:04 | 3.56979 | -51.61212 | 32901 ft | 465 kts | 329° |
| 2026-04-26 14:04 | 3.59683 | -51.62966 | 32267 ft | 462 kts | 329° |
| 2026-04-26 14:05 | 3.62374 | -51.64712 | 31632 ft | 459 kts | 329° |
| 2026-04-26 14:05 | 3.65010 | -51.66420 | 31018 ft | 456 kts | 329° |
| 2026-04-26 14:05 | 3.67669 | -51.68137 | 30399 ft | 453 kts | 329° |
| 2026-04-26 14:05 | 3.70316 | -51.69845 | 29741 ft | 451 kts | 329° |
| 2026-04-26 14:06 | 3.72943 | -51.71545 | 29132 ft | 446 kts | 329° |
| 2026-04-26 14:06 | 3.75535 | -51.73222 | 28548 ft | 441 kts | 329° |
| 2026-04-26 14:06 | 3.78107 | -51.74886 | 27974 ft | 437 kts | 330° |
| 2026-04-26 14:06 | 3.80646 | -51.76527 | 27427 ft | 432 kts | 330° |
| 2026-04-26 14:07 | 3.83162 | -51.78154 | 26882 ft | 428 kts | 330° |
| 2026-04-26 14:07 | 3.85653 | -51.79767 | 26375 ft | 423 kts | 330° |
| 2026-04-26 14:07 | 3.88131 | -51.81335 | 25861 ft | 419 kts | 331° |
| 2026-04-26 14:07 | 3.90621 | -51.82836 | 25345 ft | 415 kts | 332° |
| 2026-04-26 14:08 | 3.93080 | -51.84275 | 24838 ft | 413 kts | 333° |
| 2026-04-26 14:08 | 3.95563 | -51.85710 | 24313 ft | 410 kts | 333° |
| 2026-04-26 14:08 | 3.98032 | -51.87139 | 23780 ft | 409 kts | 333° |
| 2026-04-26 14:08 | 4.00490 | -51.88573 | 23179 ft | 408 kts | 332° |
| 2026-04-26 14:09 | 4.02925 | -51.90007 | 22621 ft | 404 kts | 332° |
| 2026-04-26 14:09 | 4.05342 | -51.91438 | 22088 ft | 401 kts | 332° |
| 2026-04-26 14:09 | 4.07735 | -51.92858 | 21538 ft | 398 kts | 332° |
| 2026-04-26 14:09 | 4.10119 | -51.94271 | 21005 ft | 396 kts | 332° |
| 2026-04-26 14:10 | 4.12485 | -51.95676 | 20470 ft | 394 kts | 332° |
| 2026-04-26 14:10 | 4.14832 | -51.97073 | 19930 ft | 392 kts | 332° |
| 2026-04-26 14:10 | 4.17141 | -51.98444 | 19411 ft | 390 kts | 332° |
| 2026-04-26 14:10 | 4.19472 | -51.99825 | 18885 ft | 388 kts | 332° |
| 2026-04-26 14:11 | 4.23995 | -52.02737 | 17793 ft | 387 kts | 321° |
| 2026-04-26 14:11 | 4.25834 | -52.04693 | 17281 ft | 385 kts | 312° |
| 2026-04-26 14:11 | 4.27559 | -52.06738 | 16772 ft | 382 kts | 312° |
| 2026-04-26 14:12 | 4.29270 | -52.08762 | 16268 ft | 379 kts | 312° |
| 2026-04-26 14:12 | 4.30976 | -52.10775 | 15775 ft | 377 kts | 312° |
| 2026-04-26 14:12 | 4.32670 | -52.12774 | 15279 ft | 374 kts | 312° |
| 2026-04-26 14:12 | 4.34346 | -52.14753 | 14807 ft | 371 kts | 312° |
| 2026-04-26 14:13 | 4.37645 | -52.18642 | 13894 ft | 366 kts | 312° |
| 2026-04-26 14:13 | 4.39286 | -52.20577 | 13432 ft | 361 kts | 312° |
| 2026-04-26 14:13 | 4.40914 | -52.22494 | 12901 ft | 359 kts | 312° |
| 2026-04-26 14:14 | 4.42532 | -52.24401 | 12339 ft | 358 kts | 312° |
| 2026-04-26 14:14 | 4.44131 | -52.26289 | 11858 ft | 354 kts | 312° |
| 2026-04-26 14:14 | 4.45722 | -52.28165 | 11356 ft | 351 kts | 312° |
| 2026-04-26 14:14 | 4.47296 | -52.30023 | 10869 ft | 348 kts | 312° |
| 2026-04-26 14:15 | 4.48857 | -52.31866 | 10375 ft | 346 kts | 312° |
| 2026-04-26 14:15 | 4.50401 | -52.33688 | 10045 ft | 338 kts | 312° |
| 2026-04-26 14:15 | 4.51885 | -52.35443 | 9928 ft | 323 kts | 312° |
| 2026-04-26 14:15 | 4.53315 | -52.37137 | 9698 ft | 313 kts | 312° |
| 2026-04-26 14:16 | 4.54719 | -52.38793 | 9265 ft | 310 kts | 312° |
| 2026-04-26 14:16 | 4.56095 | -52.40413 | 8861 ft | 308 kts | 312° |
| 2026-04-26 14:16 | 4.57473 | -52.42040 | 8391 ft | 303 kts | 312° |
| 2026-04-26 14:16 | 4.58829 | -52.43642 | 7627 ft | 299 kts | 312° |
| 2026-04-26 14:17 | 4.60176 | -52.45235 | 6854 ft | 297 kts | 312° |
| 2026-04-26 14:17 | 4.61509 | -52.46811 | 6234 ft | 297 kts | 312° |
| 2026-04-26 14:17 | 4.62825 | -52.48368 | 5990 ft | 286 kts | 312° |
| 2026-04-26 14:17 | 4.64078 | -52.49852 | 5867 ft | 273 kts | 312° |
| 2026-04-26 14:18 | 4.65303 | -52.51221 | 5732 ft | 260 kts | 321° |
| 2026-04-26 14:18 | 4.66772 | -52.52214 | 5444 ft | 252 kts | 338° |
| 2026-04-26 14:18 | 4.68389 | -52.52949 | 4832 ft | 261 kts | 339° |
| 2026-04-26 14:18 | 4.70043 | -52.53698 | 4244 ft | 257 kts | 339° |
| 2026-04-26 14:19 | 4.71625 | -52.54382 | 4013 ft | 235 kts | 347° |
| 2026-04-26 14:19 | 4.73117 | -52.54330 | 3883 ft | 203 kts | 31° |
| 2026-04-26 14:19 | 4.74047 | -52.53385 | 3512 ft | 192 kts | 67° |
| 2026-04-26 14:19 | 4.74596 | -52.52166 | 3126 ft | 191 kts | 67° |
| 2026-04-26 14:20 | 4.75153 | -52.50971 | 2837 ft | 187 kts | 68° |
| 2026-04-26 14:20 | 4.75694 | -52.49805 | 2592 ft | 185 kts | 67° |
| 2026-04-26 14:20 | 4.76228 | -52.48648 | 2352 ft | 183 kts | 68° |
| 2026-04-26 14:20 | 4.76764 | -52.47485 | 2119 ft | 184 kts | 67° |
| 2026-04-26 14:21 | 4.77296 | -52.46331 | 1889 ft | 179 kts | 66° |
| 2026-04-26 14:21 | 4.77808 | -52.45223 | 1645 ft | 170 kts | 67° |
| 2026-04-26 14:21 | 4.78285 | -52.44188 | 1423 ft | 156 kts | 66° |
| 2026-04-26 14:21 | 4.78721 | -52.43243 | 1234 ft | 146 kts | 66° |
| 2026-04-26 14:22 | 4.79123 | -52.42371 | 1068 ft | 133 kts | 66° |
| 2026-04-26 14:22 | 4.79498 | -52.41557 | 915 ft | 126 kts | 67° |
| 2026-04-26 14:22 | 4.79863 | -52.40767 | 757 ft | 122 kts | 65° |
| 2026-04-26 14:22 | 4.80225 | -52.39979 | 613 ft | 125 kts | 66° |
| 2026-04-26 14:23 | 4.80585 | -52.39201 | 453 ft | 125 kts | 65° |
| 2026-04-26 14:23 | 4.80948 | -52.38404 | 254 ft | 125 kts | 65° |
| 2026-04-26 14:23 | 4.81306 | -52.37630 | 113 ft | 121 kts | 66° |
| 2026-04-26 14:23 | 4.81647 | -52.36886 | 32 ft | 108 kts | 68° |
| 2026-04-26 14:24 | 4.81874 | -52.36396 | 29 ft | 38 kts | 65° |
| 2026-04-26 14:24 | 4.81957 | -52.36226 | 29 ft | 13 kts | 41° |
| 2026-04-26 14:24 | 4.82043 | -52.36245 | 29 ft | 13 kts | 333° |
| 2026-04-26 14:24 | 4.82098 | -52.36277 | 29 ft | 5 kts | 301° |
| 2026-04-26 14:25 | 4.82086 | -52.36312 | 29 ft | 5 kts | 246° |
| 2026-04-26 14:25 | 4.82087 | -52.36337 | 29 ft | 3 kts | 321° |
| 2026-04-26 14:25 | 4.82106 | -52.36345 | 29 ft | 3 kts | 336° |
| 2026-04-26 14:25 | 4.82123 | -52.36353 | 29 ft | 2 kts | 335° |
| 2026-04-26 14:26 | 4.82138 | -52.36360 | 29 ft | 3 kts | 334° |
| 2026-04-26 14:26 | 4.82153 | -52.36367 | 29 ft | 0 kts | 334° |